sensor_id;sensor_type;location;lat;lon;timestamp;pressure;altitude;pressure_sealevel;temperature;humidity
67345;BME280;54230;52.402;6.276;2023-04-26T00:00:00;101910.0;;;5.5;73.5
67345;BME280;54230;52.402;6.276;2023-04-26T00:05:00;101910.0;;;5.4;74.3
67345;BME280;54230;52.402;6.276;2023-04-26T00:10:00;101900.0;;;5.4;74.6
67345;BME280;54230;52.402;6.276;2023-04-26T00:15:00;101910.0;;;5.3;74.8
67345;BME280;54230;52.402;6.276;2023-04-26T00:20:00;101910.0;;;5.3;74.8
67345;BME280;54230;52.402;6.276;2023-04-26T00:25:00;101910.0;;;5.3;75.1
67345;BME280;54230;52.402;6.276;2023-04-26T00:30:00;101910.0;;;5.3;75.3
67345;BME280;54230;52.402;6.276;2023-04-26T00:35:02;101900.0;;;5.3;75.3
67345;BME280;54230;52.402;6.276;2023-04-26T00:40:00;101900.0;;;5.4;75.5
67345;BME280;54230;52.402;6.276;2023-04-26T00:45:00;101900.0;;;5.5;75.8
67345;BME280;54230;52.402;6.276;2023-04-26T00:50:00;101900.0;;;5.6;76.1
67345;BME280;54230;52.402;6.276;2023-04-26T00:55:01;101900.0;;;5.6;76.1
67345;BME280;54230;52.402;6.276;2023-04-26T01:00:00;101900.0;;;5.6;76.0
67345;BME280;54230;52.402;6.276;2023-04-26T01:05:00;101890.0;;;5.5;76.0
67345;BME280;54230;52.402;6.276;2023-04-26T01:10:00;101890.0;;;5.5;76.0
67345;BME280;54230;52.402;6.276;2023-04-26T01:15:01;101890.0;;;5.5;76.0
67345;BME280;54230;52.402;6.276;2023-04-26T01:20:00;101900.0;;;5.6;75.8
67345;BME280;54230;52.402;6.276;2023-04-26T01:25:01;101890.0;;;5.7;75.4
67345;BME280;54230;52.402;6.276;2023-04-26T01:30:00;101900.0;;;5.7;75.8
67345;BME280;54230;52.402;6.276;2023-04-26T01:35:00;101900.0;;;5.7;76.1
67345;BME280;54230;52.402;6.276;2023-04-26T01:40:00;101900.0;;;5.9;76.2
67345;BME280;54230;52.402;6.276;2023-04-26T01:45:00;101890.0;;;6.2;75.5
67345;BME280;54230;52.402;6.276;2023-04-26T01:50:00;101890.0;;;6.1;74.9
67345;BME280;54230;52.402;6.276;2023-04-26T01:55:00;101890.0;;;5.8;75.0
67345;BME280;54230;52.402;6.276;2023-04-26T02:00:00;101890.0;;;5.6;75.6
67345;BME280;54230;52.402;6.276;2023-04-26T02:05:00;101900.0;;;5.4;75.9
67345;BME280;54230;52.402;6.276;2023-04-26T02:10:00;101890.0;;;5.3;76.0
67345;BME280;54230;52.402;6.276;2023-04-26T02:15:00;101900.0;;;5.2;76.5
67345;BME280;54230;52.402;6.276;2023-04-26T02:20:00;101890.0;;;5.1;76.9
67345;BME280;54230;52.402;6.276;2023-04-26T02:25:00;101890.0;;;5.1;77.0
67345;BME280;54230;52.402;6.276;2023-04-26T02:30:00;101890.0;;;5.0;77.2
67345;BME280;54230;52.402;6.276;2023-04-26T02:35:00;101890.0;;;4.9;77.5
67345;BME280;54230;52.402;6.276;2023-04-26T02:40:00;101880.0;;;4.9;77.7
67345;BME280;54230;52.402;6.276;2023-04-26T02:45:00;101890.0;;;4.8;77.8
67345;BME280;54230;52.402;6.276;2023-04-26T02:50:00;101890.0;;;4.8;77.8
67345;BME280;54230;52.402;6.276;2023-04-26T02:55:00;101890.0;;;4.7;78.1
67345;BME280;54230;52.402;6.276;2023-04-26T03:00:00;101890.0;;;4.7;78.5
67345;BME280;54230;52.402;6.276;2023-04-26T03:05:00;101890.0;;;4.5;78.9
67345;BME280;54230;52.402;6.276;2023-04-26T03:10:00;101890.0;;;4.5;79.2
67345;BME280;54230;52.402;6.276;2023-04-26T03:15:00;101900.0;;;4.4;79.3
67345;BME280;54230;52.402;6.276;2023-04-26T03:20:00;101900.0;;;4.5;79.4
67345;BME280;54230;52.402;6.276;2023-04-26T03:25:00;101890.0;;;4.6;79.7
67345;BME280;54230;52.402;6.276;2023-04-26T03:30:00;101880.0;;;4.8;79.8
67345;BME280;54230;52.402;6.276;2023-04-26T03:35:00;101880.0;;;4.9;79.7
67345;BME280;54230;52.402;6.276;2023-04-26T03:40:00;101880.0;;;4.9;79.6
67345;BME280;54230;52.402;6.276;2023-04-26T03:45:00;101900.0;;;5.3;79.3
67345;BME280;54230;52.402;6.276;2023-04-26T03:50:00;101890.0;;;5.3;79.7
67345;BME280;54230;52.402;6.276;2023-04-26T03:55:00;101870.0;;;5.2;79.9
67345;BME280;54230;52.402;6.276;2023-04-26T04:00:00;101870.0;;;4.7;80.2
67345;BME280;54230;52.402;6.276;2023-04-26T04:05:00;101870.0;;;4.6;80.6
67345;BME280;54230;52.402;6.276;2023-04-26T04:10:00;101870.0;;;4.6;80.8
67345;BME280;54230;52.402;6.276;2023-04-26T04:15:00;101870.0;;;4.7;81.3
67345;BME280;54230;52.402;6.276;2023-04-26T04:20:01;101870.0;;;4.7;81.4
67345;BME280;54230;52.402;6.276;2023-04-26T04:25:00;101880.0;;;4.8;81.3
67345;BME280;54230;52.402;6.276;2023-04-26T04:30:00;101880.0;;;4.8;81.3
67345;BME280;54230;52.402;6.276;2023-04-26T04:35:00;101890.0;;;5.0;81.4
67345;BME280;54230;52.402;6.276;2023-04-26T04:40:00;101890.0;;;5.5;81.9
67345;BME280;54230;52.402;6.276;2023-04-26T04:45:00;101900.0;;;6.0;82.2
67345;BME280;54230;52.402;6.276;2023-04-26T04:50:00;101900.0;;;6.2;81.7
67345;BME280;54230;52.402;6.276;2023-04-26T04:55:00;101900.0;;;6.5;81.8
67345;BME280;54230;52.402;6.276;2023-04-26T05:00:00;101900.0;;;6.4;80.5
67345;BME280;54230;52.402;6.276;2023-04-26T05:05:00;101900.0;;;6.4;80.0
67345;BME280;54230;52.402;6.276;2023-04-26T05:10:00;101910.0;;;6.2;79.2
67345;BME280;54230;52.402;6.276;2023-04-26T05:15:00;101910.0;;;6.1;78.9
67345;BME280;54230;52.402;6.276;2023-04-26T05:20:00;101910.0;;;6.4;79.8
67345;BME280;54230;52.402;6.276;2023-04-26T05:25:00;101910.0;;;6.7;79.7
67345;BME280;54230;52.402;6.276;2023-04-26T05:30:00;101920.0;;;6.4;78.9
67345;BME280;54230;52.402;6.276;2023-04-26T05:35:00;101920.0;;;6.4;79.1
67345;BME280;54230;52.402;6.276;2023-04-26T05:40:00;101920.0;;;6.4;79.1
67345;BME280;54230;52.402;6.276;2023-04-26T05:45:00;101920.0;;;6.6;79.4
67345;BME280;54230;52.402;6.276;2023-04-26T05:50:00;101930.0;;;6.7;78.5
67345;BME280;54230;52.402;6.276;2023-04-26T05:55:00;101930.0;;;6.4;78.2
67345;BME280;54230;52.402;6.276;2023-04-26T06:00:01;101930.0;;;6.2;78.3
67345;BME280;54230;52.402;6.276;2023-04-26T06:05:00;101930.0;;;6.3;79.0
67345;BME280;54230;52.402;6.276;2023-04-26T06:10:00;101920.0;;;6.6;78.9
67345;BME280;54230;52.402;6.276;2023-04-26T06:15:00;101920.0;;;6.6;77.5
67345;BME280;54230;52.402;6.276;2023-04-26T06:20:01;101930.0;;;6.5;76.6
67345;BME280;54230;52.402;6.276;2023-04-26T06:25:00;101940.0;;;6.5;76.5
67345;BME280;54230;52.402;6.276;2023-04-26T06:30:00;101940.0;;;6.6;76.6
67345;BME280;54230;52.402;6.276;2023-04-26T06:35:00;101940.0;;;6.9;76.7
67345;BME280;54230;52.402;6.276;2023-04-26T06:40:00;101950.0;;;7.0;75.8
67345;BME280;54230;52.402;6.276;2023-04-26T06:45:00;101960.0;;;7.1;75.7
67345;BME280;54230;52.402;6.276;2023-04-26T06:50:02;101970.0;;;7.2;76.1
67345;BME280;54230;52.402;6.276;2023-04-26T06:55:00;101970.0;;;7.2;75.8
67345;BME280;54230;52.402;6.276;2023-04-26T07:00:00;101970.0;;;7.2;75.5
67345;BME280;54230;52.402;6.276;2023-04-26T07:05:00;101960.0;;;7.4;75.4
67345;BME280;54230;52.402;6.276;2023-04-26T07:10:00;101960.0;;;7.5;75.3
67345;BME280;54230;52.402;6.276;2023-04-26T07:15:01;101970.0;;;7.8;75.1
67345;BME280;54230;52.402;6.276;2023-04-26T07:20:00;101970.0;;;8.6;73.7
67345;BME280;54230;52.402;6.276;2023-04-26T07:25:00;101970.0;;;8.9;72.9
67345;BME280;54230;52.402;6.276;2023-04-26T07:30:00;101970.0;;;8.8;71.4
67345;BME280;54230;52.402;6.276;2023-04-26T07:35:01;101970.0;;;8.9;70.7
67345;BME280;54230;52.402;6.276;2023-04-26T07:40:00;101960.0;;;9.1;69.7
67345;BME280;54230;52.402;6.276;2023-04-26T07:45:00;101960.0;;;9.6;69.4
67345;BME280;54230;52.402;6.276;2023-04-26T07:50:00;101970.0;;;10.0;68.8
67345;BME280;54230;52.402;6.276;2023-04-26T07:55:00;101950.0;;;10.0;67.4
67345;BME280;54230;52.402;6.276;2023-04-26T08:00:00;101970.0;;;10.0;65.8
67345;BME280;54230;52.402;6.276;2023-04-26T08:05:00;101970.0;;;10.2;66.3
67345;BME280;54230;52.402;6.276;2023-04-26T08:10:00;101970.0;;;10.4;64.8
67345;BME280;54230;52.402;6.276;2023-04-26T08:15:00;101970.0;;;10.5;64.9
67345;BME280;54230;52.402;6.276;2023-04-26T08:20:00;101980.0;;;10.6;63.6
67345;BME280;54230;52.402;6.276;2023-04-26T08:25:00;101980.0;;;10.8;62.9
67345;BME280;54230;52.402;6.276;2023-04-26T08:30:00;101980.0;;;11.1;63.2
67345;BME280;54230;52.402;6.276;2023-04-26T08:35:00;101980.0;;;11.2;63.4
67345;BME280;54230;52.402;6.276;2023-04-26T08:40:00;101990.0;;;11.2;62.9
67345;BME280;54230;52.402;6.276;2023-04-26T08:45:00;101990.0;;;11.1;62.0
67345;BME280;54230;52.402;6.276;2023-04-26T08:50:00;101990.0;;;11.0;61.0
67345;BME280;54230;52.402;6.276;2023-04-26T08:55:01;102020.0;;;10.1;59.9
67345;BME280;54230;52.402;6.276;2023-04-26T09:00:01;102000.0;;;8.9;63.4
67345;BME280;54230;52.402;6.276;2023-04-26T09:05:00;102000.0;;;8.5;67.8
67345;BME280;54230;52.402;6.276;2023-04-26T09:10:03;102000.0;;;8.9;67.4
67345;BME280;54230;52.402;6.276;2023-04-26T09:15:00;101980.0;;;9.5;65.5
67345;BME280;54230;52.402;6.276;2023-04-26T09:20:05;101980.0;;;9.8;63.9
67345;BME280;54230;52.402;6.276;2023-04-26T09:25:01;101980.0;;;9.9;63.0
67345;BME280;54230;52.402;6.276;2023-04-26T09:30:04;101980.0;;;10.0;64.0
67345;BME280;54230;52.402;6.276;2023-04-26T09:35:00;101980.0;;;10.2;63.4
67345;BME280;54230;52.402;6.276;2023-04-26T09:40:00;101980.0;;;10.2;62.2
67345;BME280;54230;52.402;6.276;2023-04-26T09:45:05;101990.0;;;10.3;61.5
67345;BME280;54230;52.402;6.276;2023-04-26T09:50:00;101980.0;;;10.4;62.9
67345;BME280;54230;52.402;6.276;2023-04-26T09:55:00;101980.0;;;10.5;61.5
67345;BME280;54230;52.402;6.276;2023-04-26T10:00:05;101970.0;;;10.7;62.3
67345;BME280;54230;52.402;6.276;2023-04-26T10:05:00;101970.0;;;11.1;61.8
67345;BME280;54230;52.402;6.276;2023-04-26T10:10:00;101970.0;;;11.5;59.8
67345;BME280;54230;52.402;6.276;2023-04-26T10:15:02;101970.0;;;11.9;58.8
67345;BME280;54230;52.402;6.276;2023-04-26T10:20:01;101970.0;;;12.4;57.9
67345;BME280;54230;52.402;6.276;2023-04-26T10:25:00;101960.0;;;12.6;57.8
67345;BME280;54230;52.402;6.276;2023-04-26T10:30:06;101950.0;;;12.6;56.8
67345;BME280;54230;52.402;6.276;2023-04-26T10:35:08;101960.0;;;12.9;57.9
67345;BME280;54230;52.402;6.276;2023-04-26T10:50:01;101960.0;;;13.1;52.6
67345;BME280;54230;52.402;6.276;2023-04-26T10:55:00;101960.0;;;13.0;52.8
67345;BME280;54230;52.402;6.276;2023-04-26T11:00:18;101960.0;;;12.9;53.1
67345;BME280;54230;52.402;6.276;2023-04-26T11:05:01;101950.0;;;13.2;54.2
67345;BME280;54230;52.402;6.276;2023-04-26T11:10:00;101950.0;;;13.5;51.9
67345;BME280;54230;52.402;6.276;2023-04-26T11:15:00;101950.0;;;13.4;51.5
67345;BME280;54230;52.402;6.276;2023-04-26T11:20:04;101950.0;;;13.6;51.7
67345;BME280;54230;52.402;6.276;2023-04-26T11:25:00;101950.0;;;13.5;51.4
67345;BME280;54230;52.402;6.276;2023-04-26T11:30:01;101950.0;;;13.9;51.1
67345;BME280;54230;52.402;6.276;2023-04-26T11:35:00;101950.0;;;13.9;50.9
67345;BME280;54230;52.402;6.276;2023-04-26T11:40:00;101960.0;;;13.7;50.3
67345;BME280;54230;52.402;6.276;2023-04-26T11:45:02;101950.0;;;13.7;50.1
67345;BME280;54230;52.402;6.276;2023-04-26T11:50:00;101950.0;;;14.0;49.0
67345;BME280;54230;52.402;6.276;2023-04-26T11:55:01;101940.0;;;13.9;46.8
67345;BME280;54230;52.402;6.276;2023-04-26T12:00:09;101940.0;;;14.0;47.4
67345;BME280;54230;52.402;6.276;2023-04-26T12:05:00;101940.0;;;14.1;45.6
67345;BME280;54230;52.402;6.276;2023-04-26T12:10:13;101950.0;;;14.1;44.9
67345;BME280;54230;52.402;6.276;2023-04-26T12:15:00;101950.0;;;14.3;44.4
67345;BME280;54230;52.402;6.276;2023-04-26T12:20:08;101950.0;;;14.0;42.9
67345;BME280;54230;52.402;6.276;2023-04-26T12:25:04;101940.0;;;14.4;43.4
67345;BME280;54230;52.402;6.276;2023-04-26T12:30:00;101940.0;;;14.3;41.7
67345;BME280;54230;52.402;6.276;2023-04-26T12:35:00;101950.0;;;14.8;41.1
67345;BME280;54230;52.402;6.276;2023-04-26T12:40:00;101950.0;;;14.8;39.7
67345;BME280;54230;52.402;6.276;2023-04-26T12:45:00;101950.0;;;14.8;38.0
67345;BME280;54230;52.402;6.276;2023-04-26T12:50:00;101950.0;;;14.8;36.3
67345;BME280;54230;52.402;6.276;2023-04-26T12:55:00;101950.0;;;14.6;36.8
67345;BME280;54230;52.402;6.276;2023-04-26T13:00:00;101950.0;;;14.8;37.1
67345;BME280;54230;52.402;6.276;2023-04-26T13:05:00;101940.0;;;14.7;37.5
67345;BME280;54230;52.402;6.276;2023-04-26T13:10:00;101950.0;;;14.7;38.0
67345;BME280;54230;52.402;6.276;2023-04-26T13:15:00;101940.0;;;14.7;36.4
67345;BME280;54230;52.402;6.276;2023-04-26T13:20:00;101940.0;;;14.8;36.8
67345;BME280;54230;52.402;6.276;2023-04-26T13:25:00;101930.0;;;14.7;37.5
67345;BME280;54230;52.402;6.276;2023-04-26T13:30:00;101950.0;;;15.0;38.6
67345;BME280;54230;52.402;6.276;2023-04-26T13:35:00;101950.0;;;15.0;37.4
67345;BME280;54230;52.402;6.276;2023-04-26T13:40:00;101950.0;;;14.9;36.1
67345;BME280;54230;52.402;6.276;2023-04-26T13:45:00;101950.0;;;15.1;36.0
67345;BME280;54230;52.402;6.276;2023-04-26T13:50:00;101950.0;;;15.3;36.0
67345;BME280;54230;52.402;6.276;2023-04-26T13:55:00;101950.0;;;15.4;35.2
67345;BME280;54230;52.402;6.276;2023-04-26T14:00:00;101950.0;;;15.2;35.6
67345;BME280;54230;52.402;6.276;2023-04-26T14:05:00;101960.0;;;15.0;36.1
67345;BME280;54230;52.402;6.276;2023-04-26T14:10:00;101960.0;;;14.9;37.0
67345;BME280;54230;52.402;6.276;2023-04-26T14:15:00;101960.0;;;14.4;38.0
67345;BME280;54230;52.402;6.276;2023-04-26T14:20:00;101970.0;;;13.9;38.2
67345;BME280;54230;52.402;6.276;2023-04-26T14:25:00;101970.0;;;13.8;38.1
67345;BME280;54230;52.402;6.276;2023-04-26T14:30:00;101970.0;;;13.6;38.6
67345;BME280;54230;52.402;6.276;2023-04-26T14:35:00;101980.0;;;13.6;38.4
67345;BME280;54230;52.402;6.276;2023-04-26T14:40:00;101970.0;;;13.3;38.4
67345;BME280;54230;52.402;6.276;2023-04-26T14:45:00;101970.0;;;13.3;38.6
67345;BME280;54230;52.402;6.276;2023-04-26T14:50:00;101960.0;;;13.3;39.6
67345;BME280;54230;52.402;6.276;2023-04-26T14:55:00;101960.0;;;13.3;38.8
67345;BME280;54230;52.402;6.276;2023-04-26T15:00:00;101960.0;;;13.1;39.6
67345;BME280;54230;52.402;6.276;2023-04-26T15:05:00;101960.0;;;13.0;41.0
67345;BME280;54230;52.402;6.276;2023-04-26T15:10:00;101950.0;;;13.3;40.2
67345;BME280;54230;52.402;6.276;2023-04-26T15:15:00;101960.0;;;13.5;40.5
67345;BME280;54230;52.402;6.276;2023-04-26T15:20:00;101960.0;;;13.5;41.3
67345;BME280;54230;52.402;6.276;2023-04-26T15:25:00;101950.0;;;13.3;41.0
67345;BME280;54230;52.402;6.276;2023-04-26T15:30:00;101950.0;;;13.5;40.5
67345;BME280;54230;52.402;6.276;2023-04-26T15:35:00;101950.0;;;13.6;39.8
67345;BME280;54230;52.402;6.276;2023-04-26T15:40:00;101940.0;;;13.9;39.5
67345;BME280;54230;52.402;6.276;2023-04-26T15:45:00;101950.0;;;14.1;39.3
67345;BME280;54230;52.402;6.276;2023-04-26T15:50:00;101950.0;;;14.4;38.7
67345;BME280;54230;52.402;6.276;2023-04-26T15:55:00;101950.0;;;14.6;38.5
67345;BME280;54230;52.402;6.276;2023-04-26T16:00:00;101950.0;;;14.5;38.2
67345;BME280;54230;52.402;6.276;2023-04-26T16:05:00;101950.0;;;14.0;38.3
67345;BME280;54230;52.402;6.276;2023-04-26T16:10:00;101960.0;;;13.9;39.2
67345;BME280;54230;52.402;6.276;2023-04-26T16:15:00;101960.0;;;13.7;40.0
67345;BME280;54230;52.402;6.276;2023-04-26T16:20:01;101960.0;;;13.6;41.1
67345;BME280;54230;52.402;6.276;2023-04-26T16:25:01;101970.0;;;13.1;41.7
67345;BME280;54230;52.402;6.276;2023-04-26T16:30:00;101970.0;;;13.1;42.3
67345;BME280;54230;52.402;6.276;2023-04-26T16:35:00;101970.0;;;12.7;43.8
67345;BME280;54230;52.402;6.276;2023-04-26T16:40:00;101960.0;;;12.4;44.4
67345;BME280;54230;52.402;6.276;2023-04-26T16:45:00;101970.0;;;12.2;45.0
67345;BME280;54230;52.402;6.276;2023-04-26T16:50:00;101970.0;;;12.2;45.2
67345;BME280;54230;52.402;6.276;2023-04-26T16:55:00;101970.0;;;12.2;46.1
67345;BME280;54230;52.402;6.276;2023-04-26T17:00:00;101970.0;;;12.6;45.6
67345;BME280;54230;52.402;6.276;2023-04-26T17:05:00;101980.0;;;12.7;44.6
67345;BME280;54230;52.402;6.276;2023-04-26T17:10:00;101980.0;;;12.9;44.2
67345;BME280;54230;52.402;6.276;2023-04-26T17:15:00;101990.0;;;12.7;44.6
67345;BME280;54230;52.402;6.276;2023-04-26T17:20:00;101990.0;;;12.2;45.1
67345;BME280;54230;52.402;6.276;2023-04-26T17:25:00;101980.0;;;12.1;45.0
67345;BME280;54230;52.402;6.276;2023-04-26T17:30:00;101980.0;;;12.0;44.6
67345;BME280;54230;52.402;6.276;2023-04-26T17:35:00;101970.0;;;12.0;45.5
67345;BME280;54230;52.402;6.276;2023-04-26T17:40:00;101970.0;;;12.1;45.1
67345;BME280;54230;52.402;6.276;2023-04-26T17:45:00;101980.0;;;12.1;45.2
67345;BME280;54230;52.402;6.276;2023-04-26T17:50:00;101980.0;;;12.1;45.6
67345;BME280;54230;52.402;6.276;2023-04-26T17:55:00;101980.0;;;12.1;45.4
67345;BME280;54230;52.402;6.276;2023-04-26T18:00:00;101980.0;;;12.0;45.3
67345;BME280;54230;52.402;6.276;2023-04-26T18:05:00;101970.0;;;11.9;45.2
67345;BME280;54230;52.402;6.276;2023-04-26T18:10:00;101980.0;;;11.9;45.1
67345;BME280;54230;52.402;6.276;2023-04-26T18:15:00;101980.0;;;11.9;45.4
67345;BME280;54230;52.402;6.276;2023-04-26T18:20:00;101980.0;;;11.8;45.5
67345;BME280;54230;52.402;6.276;2023-04-26T18:25:00;101980.0;;;11.7;45.7
67345;BME280;54230;52.402;6.276;2023-04-26T18:30:00;101990.0;;;11.6;46.1
67345;BME280;54230;52.402;6.276;2023-04-26T18:35:00;101990.0;;;11.5;46.3
67345;BME280;54230;52.402;6.276;2023-04-26T18:40:00;102000.0;;;11.3;46.4
67345;BME280;54230;52.402;6.276;2023-04-26T18:45:00;102000.0;;;11.3;46.2
67345;BME280;54230;52.402;6.276;2023-04-26T18:50:00;102000.0;;;11.0;47.2
67345;BME280;54230;52.402;6.276;2023-04-26T18:55:00;102010.0;;;10.6;48.9
67345;BME280;54230;52.402;6.276;2023-04-26T19:00:00;102010.0;;;10.2;50.5
67345;BME280;54230;52.402;6.276;2023-04-26T19:05:00;102010.0;;;9.9;51.3
67345;BME280;54230;52.402;6.276;2023-04-26T19:10:00;102020.0;;;9.8;51.6
67345;BME280;54230;52.402;6.276;2023-04-26T19:15:00;102020.0;;;9.7;52.0
67345;BME280;54230;52.402;6.276;2023-04-26T19:20:00;102030.0;;;9.5;52.3
67345;BME280;54230;52.402;6.276;2023-04-26T19:25:00;102040.0;;;9.4;52.6
67345;BME280;54230;52.402;6.276;2023-04-26T19:30:00;102040.0;;;9.3;52.7
67345;BME280;54230;52.402;6.276;2023-04-26T19:35:00;102050.0;;;9.2;53.2
67345;BME280;54230;52.402;6.276;2023-04-26T19:40:00;102050.0;;;9.1;53.8
67345;BME280;54230;52.402;6.276;2023-04-26T19:45:00;102050.0;;;8.9;54.1
67345;BME280;54230;52.402;6.276;2023-04-26T19:50:00;102050.0;;;8.7;55.0
67345;BME280;54230;52.402;6.276;2023-04-26T19:55:00;102050.0;;;8.6;55.3
67345;BME280;54230;52.402;6.276;2023-04-26T20:00:00;102060.0;;;8.6;56.0
67345;BME280;54230;52.402;6.276;2023-04-26T20:05:00;102060.0;;;8.5;56.5
67345;BME280;54230;52.402;6.276;2023-04-26T20:10:00;102070.0;;;8.4;57.2
67345;BME280;54230;52.402;6.276;2023-04-26T20:15:00;102070.0;;;8.3;57.3
67345;BME280;54230;52.402;6.276;2023-04-26T20:20:00;102070.0;;;8.3;57.4
67345;BME280;54230;52.402;6.276;2023-04-26T20:25:00;102070.0;;;8.3;57.3
67345;BME280;54230;52.402;6.276;2023-04-26T20:30:00;102070.0;;;8.2;58.2
67345;BME280;54230;52.402;6.276;2023-04-26T20:35:00;102070.0;;;8.1;58.9
67345;BME280;54230;52.402;6.276;2023-04-26T20:40:00;102070.0;;;8.0;59.6
67345;BME280;54230;52.402;6.276;2023-04-26T20:45:00;102070.0;;;7.9;60.1
67345;BME280;54230;52.402;6.276;2023-04-26T20:50:00;102070.0;;;7.8;60.2
67345;BME280;54230;52.402;6.276;2023-04-26T20:55:00;102070.0;;;7.8;60.2
67345;BME280;54230;52.402;6.276;2023-04-26T21:00:00;102070.0;;;7.7;60.3
67345;BME280;54230;52.402;6.276;2023-04-26T21:05:00;102070.0;;;7.6;60.6
67345;BME280;54230;52.402;6.276;2023-04-26T21:10:00;102070.0;;;7.5;60.3
67345;BME280;54230;52.402;6.276;2023-04-26T21:15:00;102070.0;;;7.4;60.3
67345;BME280;54230;52.402;6.276;2023-04-26T21:20:00;102070.0;;;7.4;61.5
67345;BME280;54230;52.402;6.276;2023-04-26T21:25:00;102070.0;;;7.6;61.6
67345;BME280;54230;52.402;6.276;2023-04-26T21:30:00;102080.0;;;7.4;62.3
67345;BME280;54230;52.402;6.276;2023-04-26T21:35:00;102080.0;;;7.4;62.0
67345;BME280;54230;52.402;6.276;2023-04-26T21:40:00;102070.0;;;7.2;62.4
67345;BME280;54230;52.402;6.276;2023-04-26T21:45:00;102080.0;;;7.2;63.0
67345;BME280;54230;52.402;6.276;2023-04-26T21:50:00;102080.0;;;7.1;62.7
67345;BME280;54230;52.402;6.276;2023-04-26T21:55:00;102080.0;;;6.9;63.1
67345;BME280;54230;52.402;6.276;2023-04-26T22:00:00;102080.0;;;6.8;63.5
67345;BME280;54230;52.402;6.276;2023-04-26T22:05:00;102080.0;;;6.9;64.9
67345;BME280;54230;52.402;6.276;2023-04-26T22:10:00;102080.0;;;7.1;64.0
67345;BME280;54230;52.402;6.276;2023-04-26T22:15:00;102080.0;;;6.9;63.1
67345;BME280;54230;52.402;6.276;2023-04-26T22:20:00;102090.0;;;6.8;63.6
67345;BME280;54230;52.402;6.276;2023-04-26T22:25:00;102090.0;;;6.7;63.9
67345;BME280;54230;52.402;6.276;2023-04-26T22:30:00;102090.0;;;6.8;66.6
67345;BME280;54230;52.402;6.276;2023-04-26T22:35:00;102090.0;;;6.9;68.3
67345;BME280;54230;52.402;6.276;2023-04-26T22:40:00;102100.0;;;6.9;69.2
67345;BME280;54230;52.402;6.276;2023-04-26T22:45:00;102100.0;;;6.8;68.7
67345;BME280;54230;52.402;6.276;2023-04-26T22:50:00;102100.0;;;6.6;68.7
67345;BME280;54230;52.402;6.276;2023-04-26T22:55:00;102100.0;;;6.7;69.5
67345;BME280;54230;52.402;6.276;2023-04-26T23:00:00;102110.0;;;6.7;70.2
67345;BME280;54230;52.402;6.276;2023-04-26T23:05:00;102100.0;;;6.6;70.5
67345;BME280;54230;52.402;6.276;2023-04-26T23:10:00;102110.0;;;6.5;70.7
67345;BME280;54230;52.402;6.276;2023-04-26T23:15:00;102100.0;;;6.4;71.2
67345;BME280;54230;52.402;6.276;2023-04-26T23:20:00;102110.0;;;6.4;70.4
67345;BME280;54230;52.402;6.276;2023-04-26T23:25:00;102110.0;;;6.1;68.5
67345;BME280;54230;52.402;6.276;2023-04-26T23:30:00;102130.0;;;5.8;68.1
67345;BME280;54230;52.402;6.276;2023-04-26T23:35:00;102130.0;;;5.6;68.2
67345;BME280;54230;52.402;6.276;2023-04-26T23:40:00;102130.0;;;5.3;68.6
67345;BME280;54230;52.402;6.276;2023-04-26T23:45:00;102130.0;;;5.2;69.9
67345;BME280;54230;52.402;6.276;2023-04-26T23:50:00;102130.0;;;5.7;71.3
67345;BME280;54230;52.402;6.276;2023-04-26T23:55:00;102140.0;;;5.3;69.1
